Terminal Aerodrome Forecast
Issued by NWS Miami, FL

Home | Current Version | Previous Version | Text Only | Print | Product List | Glossary On
Versions: 1 2 3 4 5 6 7 8 9 10 11 12 13 14 15 16 17 18 19 20 21 22 23 24 25 26
000
FTUS42 KMFL 201120
TAFFLL
TAF
KFLL 201120Z 2012/2112 VRB03KT P6SM FEW040 FEW250
     FM201400 04005KT P6SM FEW040 FEW250
     FM201600 07010KT P6SM SCT025 SCT050
     FM210000 07007KT P6SM FEW030 SCT250=

USA.gov is the U.S. government's official web portal to all federal, state and local government web resources and services.